Airdrie, Canada
Current Conditions -  °F | °C
As of 12:00 AM on Friday 24 Oct 2014 (Local Time) from CYYC Reporting Station
Broken Clouds Broken Clouds  
Wind Chill: 38°   Ceiling: 8800
Heat Index: 45°   Visibility: 15mi
Dew Point: 30°   Wind: 13mph
Humidity: 57%   Direction: 260°W
Pressure: 29.63"   Gusts: 23mph
Location:  51.29°N, 114.01°W
Report Text: CYYC 240600Z 26011G20KT 15SM BKN088 07/M01 A2963 RMK AC6 SLP048 DENSITY ALT 3800FT
Loading
Personal Weather Stations






























Interactive Weather Map
Tropical Storm Tracking
New forecast layout! Learn more

10-Day Weather Forecast

Advertisements
Track Severe Weather on mobile